Time;durP1;ratioP1;P1;durP2;ratioP2;P2;SDS_P1;SDS_P2;PMS_P1;PMS_P2;Temp;Humidity;BMP_temperature;BMP_pressure;BME280_temperature;BME280_humidity;BME280_pressure;Samples;Min_cycle;Max_cycle;Signal;HPM_P1;HPM_P2
2022/09/27 00:01:12;;;;;;;2.05;1.08;;;;;;;-145.49;100.00;62790.56;4972385;28;20429;-84
2022/09/27 00:03:41;;;;;;;2.17;1.45;;;;;;;-145.49;100.00;62790.56;4972232;28;20511;-84
2022/09/27 00:06:10;;;;;;;1.63;1.27;;;;;;;-145.49;100.00;62790.56;4970656;28;20417;-83
2022/09/27 00:08:40;;;;;;;2.67;1.48;;;;;;;-145.49;100.00;62790.56;4970265;28;20481;-85
2022/09/27 00:11:16;;;;;;;1.80;1.38;;;;;;;-145.49;100.00;62790.56;4940373;28;20041;-84
2022/09/27 00:13:45;;;;;;;1.42;1.10;;;;;;;-145.49;100.00;62790.56;4969050;28;20041;-84
2022/09/27 00:16:16;;;;;;;2.15;1.73;;;;;;;-145.49;100.00;62790.56;4961873;28;20043;-84
2022/09/27 00:18:43;;;;;;;1.77;1.27;;;;;;;-145.49;100.00;62790.56;4969715;28;20037;-84
2022/09/27 00:21:15;;;;;;;4.93;1.42;;;;;;;-145.49;100.00;62790.56;4985813;28;20034;-83
2022/09/27 00:23:46;;;;;;;2.63;1.58;;;;;;;-145.49;100.00;62790.56;4952729;28;20046;-83
2022/09/27 00:26:15;;;;;;;1.95;1.63;;;;;;;-145.49;100.00;62790.56;4978608;28;20038;-83
2022/09/27 00:28:43;;;;;;;1.60;1.35;;;;;;;-145.49;100.00;62790.56;4969997;28;20038;-86
2022/09/27 00:31:28;;;;;;;2.67;2.28;;;;;;;-145.49;100.00;62790.56;4982045;28;20035;-84
2022/09/27 00:33:58;;;;;;;2.72;1.52;;;;;;;-145.49;100.00;62790.56;4952619;28;20035;-81
2022/09/27 00:36:26;;;;;;;2.60;1.80;;;;;;;-145.49;100.00;62790.56;4949248;28;20039;-82
2022/09/27 00:38:55;;;;;;;2.53;2.05;;;;;;;-145.49;100.00;62790.56;4972361;28;20065;-84
2022/09/27 00:41:26;;;;;;;2.40;1.92;;;;;;;-145.49;100.00;62790.56;4970503;28;20042;-84
2022/09/27 00:43:58;;;;;;;2.35;2.00;;;;;;;-145.49;100.00;62790.56;4968308;28;20046;-84
2022/09/27 00:46:32;;;;;;;2.92;2.03;;;;;;;-145.49;100.00;62790.56;4982126;28;20043;-82
2022/09/27 00:49:04;;;;;;;10.00;2.28;;;;;;;-145.49;100.00;62790.56;4947612;28;20046;-82
2022/09/27 00:51:35;;;;;;;2.15;1.95;;;;;;;-145.49;100.00;62790.56;4970319;28;20050;-84
2022/09/27 00:54:06;;;;;;;1.88;1.67;;;;;;;-145.49;100.00;62790.56;4970819;28;20045;-83
2022/09/27 00:56:35;;;;;;;3.45;2.58;;;;;;;-145.49;100.00;62790.56;4969144;28;20038;-84
2022/09/27 00:59:13;;;;;;;2.80;2.38;;;;;;;-145.49;100.00;62790.56;4961237;28;20104;-86
2022/09/27 01:01:47;;;;;;;2.10;1.58;;;;;;;-145.49;100.00;62790.56;4966846;28;20038;-85
2022/09/27 01:04:22;;;;;;;4.90;2.15;;;;;;;-145.49;100.00;62790.56;4964803;28;20034;-83
2022/09/27 01:06:52;;;;;;;2.08;1.77;;;;;;;-145.49;100.00;62790.56;4952559;28;20046;-84
2022/09/27 01:09:20;;;;;;;4.28;2.22;;;;;;;-145.49;100.00;62790.56;4961212;28;20039;-83
2022/09/27 01:12:28;;;;;;;2.70;2.05;;;;;;;-145.49;100.00;62790.56;4964008;28;20049;-85
2022/09/27 01:15:22;;;;;;;2.20;1.77;;;;;;;-145.49;100.00;62790.56;4967255;28;20023;-84
2022/09/27 01:18:18;;;;;;;2.05;1.85;;;;;;;-145.49;100.00;62790.56;4969502;28;20041;-85
2022/09/27 01:21:07;;;;;;;4.32;1.88;;;;;;;-145.49;100.00;62790.56;4986861;28;20394;-83
2022/09/27 01:23:45;;;;;;;2.83;1.38;;;;;;;-145.49;100.00;62790.56;4964566;28;20051;-84
2022/09/27 01:26:40;;;;;;;1.42;1.33;;;;;;;-145.49;100.00;62790.56;4969496;28;20038;-84
2022/09/27 01:29:16;;;;;;;2.30;1.58;;;;;;;-145.49;100.00;62790.56;4965728;28;20551;-86
2022/09/27 01:32:08;;;;;;;1.25;1.15;;;;;;;-145.49;100.00;62790.56;4966595;28;20046;-84
2022/09/27 01:34:48;;;;;;;1.80;1.38;;;;;;;-145.49;100.00;62790.56;4964796;28;20405;-85
2022/09/27 01:37:28;;;;;;;1.98;1.33;;;;;;;-145.49;100.00;62790.56;4980092;28;20047;-83
2022/09/27 01:39:59;;;;;;;2.42;1.77;;;;;;;-145.49;100.00;62790.56;4952975;28;20042;-85
2022/09/27 01:42:41;;;;;;;1.73;1.50;;;;;;;-145.49;100.00;62790.56;4971304;28;20039;-84
2022/09/27 01:45:23;;;;;;;2.35;1.30;;;;;;;-145.49;100.00;62790.56;4975079;28;20034;-85
2022/09/27 01:48:20;;;;;;;1.83;1.30;;;;;;;-145.49;100.00;62790.56;4964828;28;20043;-85
2022/09/27 01:51:08;;;;;;;1.85;1.35;;;;;;;-145.49;100.00;62790.56;4969643;28;20031;-85
2022/09/27 01:53:39;;;;;;;2.05;1.67;;;;;;;-145.49;100.00;62790.56;4965427;28;20042;-85
2022/09/27 01:56:51;;;;;;;2.92;1.58;;;;;;;-145.49;100.00;62790.56;4960183;28;20035;-85
2022/09/27 01:59:32;;;;;;;2.03;1.48;;;;;;;-145.49;100.00;62790.56;4968242;28;20038;-84
2022/09/27 02:02:41;;;;;;;3.45;1.55;;;;;;;-145.49;100.00;62790.56;4967068;28;20045;-85
2022/09/27 02:05:38;;;;;;;2.53;1.73;;;;;;;-145.49;100.00;62790.56;4965566;28;20034;-85
2022/09/27 02:08:41;;;;;;;2.92;1.90;;;;;;;-145.49;100.00;62790.56;4962045;28;20046;-84
2022/09/27 02:11:23;;;;;;;1.95;1.27;;;;;;;-145.49;100.00;62790.56;4966461;28;20041;-85
2022/09/27 02:14:18;;;;;;;3.72;2.08;;;;;;;-145.49;100.00;62790.56;4954291;28;20058;-85
2022/09/27 02:16:53;;;;;;;1.30;0.90;;;;;;;-145.49;100.00;62790.56;4944307;28;20433;-85
2022/09/27 02:19:31;;;;;;;2.97;1.52;;;;;;;-145.49;100.00;62790.56;4964358;28;20035;-85
2022/09/27 02:21:59;;;;;;;2.00;1.17;;;;;;;-145.49;100.00;62790.56;4978157;28;20049;-86
2022/09/27 02:24:55;;;;;;;2.38;1.05;;;;;;;-145.49;100.00;62790.56;4951627;28;20053;-85
2022/09/27 02:27:30;;;;;;;1.83;1.23;;;;;;;-145.49;100.00;62790.56;4944744;28;20039;-85
2022/09/27 02:30:23;;;;;;;1.48;1.17;;;;;;;-145.49;100.00;62790.56;4960841;28;20042;-85
2022/09/27 02:32:57;;;;;;;3.17;1.80;;;;;;;-145.49;100.00;62790.56;4949791;28;20050;-85
2022/09/27 02:35:31;;;;;;;2.25;1.42;;;;;;;-145.49;100.00;62790.56;4967578;28;20030;-85
2022/09/27 02:38:05;;;;;;;3.45;1.52;;;;;;;-145.49;100.00;62790.56;4965216;28;20031;-83
2022/09/27 02:40:44;;;;;;;2.08;1.15;;;;;;;-145.49;100.00;62790.56;4967924;28;20066;-85
2022/09/27 02:43:16;;;;;;;3.33;1.80;;;;;;;-145.49;100.00;62790.56;4962693;28;20043;-84
2022/09/27 02:46:13;;;;;;;3.25;1.50;;;;;;;-145.49;100.00;62790.56;4982903;28;20043;-86
2022/09/27 02:49:09;;;;;;;6.20;2.30;;;;;;;-145.49;100.00;62790.56;4968454;28;20038;-85
2022/09/27 02:52:05;;;;;;;4.10;2.45;;;;;;;-145.49;100.00;62790.56;4962519;28;20047;-86
2022/09/27 02:54:34;;;;;;;3.72;2.97;;;;;;;-145.49;100.00;62790.56;4968969;28;20031;-85
2022/09/27 02:57:17;;;;;;;3.80;2.20;;;;;;;-145.49;100.00;62790.56;4970245;28;20046;-85
2022/09/27 03:00:11;;;;;;;6.65;2.42;;;;;;;-145.49;100.00;62790.56;4970017;28;20027;-85
2022/09/27 03:03:31;;;;;;;6.40;2.88;;;;;;;-145.49;100.00;62790.56;4957452;28;20074;-85
2022/09/27 03:06:06;;;;;;;3.78;2.60;;;;;;;-145.49;100.00;62790.56;4968353;28;20035;-85
2022/09/27 03:08:32;;;;;;;;;;;;;;;-145.49;100.00;62790.56;4967590;28;20043;-85
2022/09/27 03:10:59;;;;;;;5.50;2.05;;;;;;;-145.49;100.00;62790.56;4969454;28;19918;-86
2022/09/27 03:13:30;;;;;;;4.63;2.05;;;;;;;-145.49;100.00;62790.56;4960212;28;20039;-85
2022/09/27 03:15:58;;;;;;;1.83;1.48;;;;;;;-145.49;100.00;62790.56;4964693;28;20035;-86
2022/09/27 03:18:47;;;;;;;6.13;3.75;;;;;;;-145.49;100.00;62790.56;4955918;28;20057;-85
2022/09/27 03:21:34;;;;;;;3.80;1.80;;;;;;;-145.49;100.00;62790.56;4970147;28;20035;-83
2022/09/27 03:24:02;;;;;;;4.40;1.70;;;;;;;-145.49;100.00;62790.56;4969428;28;20203;-85
2022/09/27 03:26:31;;;;;;;9.60;3.95;;;;;;;-145.49;100.00;62790.56;4971845;28;20509;-85
2022/09/27 03:29:02;;;;;;;3.13;2.42;;;;;;;-145.49;100.00;62790.56;4972997;28;20392;-86
2022/09/27 03:31:30;;;;;;;3.80;2.42;;;;;;;-145.49;100.00;62790.56;4950642;28;20038;-84
2022/09/27 03:34:15;;;;;;;2.83;2.00;;;;;;;-145.49;100.00;62790.56;4970337;28;20042;-86
2022/09/27 03:36:42;;;;;;;3.58;2.58;;;;;;;-145.49;100.00;62790.56;4970788;28;20041;-84
2022/09/27 03:39:10;;;;;;;2.88;2.50;;;;;;;-145.49;100.00;62790.56;4956600;28;20038;-83
2022/09/27 03:41:41;;;;;;;9.18;2.45;;;;;;;-145.49;100.00;62790.56;4963817;28;20034;-84
2022/09/27 03:44:13;;;;;;;3.33;2.35;;;;;;;-145.49;100.00;62790.56;4967056;28;20051;-83
2022/09/27 03:46:39;;;;;;;5.13;3.13;;;;;;;-145.49;100.00;62790.56;4966135;28;20046;-83
2022/09/27 03:49:05;;;;;;;4.35;2.53;;;;;;;-145.49;100.00;62790.56;4968521;28;20035;-84
2022/09/27 03:51:31;;;;;;;3.65;2.35;;;;;;;-145.49;100.00;62790.56;4973501;28;20031;-84
2022/09/27 03:54:02;;;;;;;3.55;2.10;;;;;;;-145.49;100.00;62790.56;4965729;28;20482;-84
2022/09/27 03:56:36;;;;;;;4.60;2.75;;;;;;;-145.49;100.00;62790.56;4953308;28;20371;-84
2022/09/27 03:59:05;;;;;;;3.75;2.15;;;;;;;-145.49;100.00;62790.56;4969804;28;20034;-84
2022/09/27 04:01:53;;;;;;;5.55;4.00;;;;;;;-145.49;100.00;62790.56;4970526;28;20042;-85
2022/09/27 04:04:41;;;;;;;6.50;2.42;;;;;;;-145.49;100.00;62790.56;4966219;28;20050;-84
2022/09/27 04:07:12;;;;;;;5.47;2.67;;;;;;;-145.49;100.00;62790.56;4953951;28;20382;-83
2022/09/27 04:09:41;;;;;;;5.70;2.40;;;;;;;-145.49;100.00;62790.56;4973410;28;20042;-82
2022/09/27 04:12:11;;;;;;;4.25;2.67;;;;;;;-145.49;100.00;62790.56;4962588;28;20039;-83
2022/09/27 04:14:42;;;;;;;2.85;2.03;;;;;;;-145.49;100.00;62790.56;4940544;28;20444;-82
2022/09/27 04:17:26;;;;;;;5.00;2.70;;;;;;;-145.49;100.00;62790.56;4971829;28;20031;-83
2022/09/27 04:20:14;;;;;;;4.97;2.60;;;;;;;-145.49;100.00;62790.56;4968785;28;20524;-84
2022/09/27 04:22:47;;;;;;;3.53;2.38;;;;;;;-145.49;100.00;62790.56;4967413;28;20065;-84
2022/09/27 04:25:16;;;;;;;5.65;2.95;;;;;;;-145.49;100.00;62790.56;4960993;28;20050;-83
2022/09/27 04:27:53;;;;;;;4.05;2.42;;;;;;;-145.49;100.00;62790.56;4986835;28;20404;-84
2022/09/27 04:30:22;;;;;;;3.25;1.83;;;;;;;-145.49;100.00;62790.56;4951458;28;20043;-83
2022/09/27 04:33:14;;;;;;;4.28;3.05;;;;;;;-145.49;100.00;62790.56;4971112;28;20441;-84
2022/09/27 04:39:12;;;;;;;8.07;2.78;;;;;;;-145.49;100.00;62790.56;4949631;28;20038;-84
2022/09/27 04:41:41;;;;;;;2.75;2.25;;;;;;;-145.49;100.00;62790.56;4970886;28;20045;-83
2022/09/27 04:44:07;;;;;;;3.78;2.40;;;;;;;-145.49;100.00;62790.56;4969410;28;20043;-85
2022/09/27 04:46:36;;;;;;;5.00;2.83;;;;;;;-145.49;100.00;62790.56;4959712;28;20039;-84
2022/09/27 04:49:07;;;;;;;4.63;2.10;;;;;;;-145.49;100.00;62790.56;4968676;28;20489;-84
2022/09/27 04:51:38;;;;;;;4.05;2.72;;;;;;;-145.49;100.00;62790.56;4966572;28;20050;-85
2022/09/27 04:54:06;;;;;;;2.42;2.00;;;;;;;-145.49;100.00;62790.56;4969143;28;20480;-85
2022/09/27 04:56:39;;;;;;;4.30;2.38;;;;;;;-145.49;100.00;62790.56;4959479;28;20050;-84
2022/09/27 04:59:11;;;;;;;3.80;2.75;;;;;;;-145.49;100.00;62790.56;4953702;28;20034;-83
2022/09/27 05:01:44;;;;;;;3.65;2.88;;;;;;;-145.49;100.00;62790.56;4964028;28;20049;-85
2022/09/27 05:04:33;;;;;;;4.38;3.08;;;;;;;-145.49;100.00;62790.56;4969368;28;20038;-84
2022/09/27 05:07:03;;;;;;;4.07;2.90;;;;;;;-145.49;100.00;62790.56;4983381;28;20531;-83
2022/09/27 05:09:37;;;;;;;4.97;3.00;;;;;;;-145.49;100.00;62790.56;4955852;28;20042;-84
2022/09/27 05:12:06;;;;;;;3.80;3.33;;;;;;;-145.49;100.00;62790.56;4956245;28;20057;-85
2022/09/27 05:14:38;;;;;;;6.90;3.13;;;;;;;-145.49;100.00;62790.56;4960863;28;20046;-84
2022/09/27 05:17:30;;;;;;;7.25;2.67;;;;;;;-145.49;100.00;62790.56;4999820;23;20053;-75
2022/09/27 05:20:27;;;;;;;5.80;2.85;;;;;;;-145.49;100.00;62790.56;4983580;28;20057;-74
2022/09/27 05:23:00;;;;;;;4.72;2.60;;;;;;;-145.49;100.00;62790.56;4988026;28;20038;-74
2022/09/27 05:25:26;;;;;;;7.55;2.70;;;;;;;-145.49;100.00;62790.56;4990113;28;20031;-74
2022/09/27 05:27:56;;;;;;;3.65;2.25;;;;;;;-145.49;100.00;62790.56;4972603;28;20033;-74
2022/09/27 05:30:24;;;;;;;11.95;4.20;;;;;;;-145.49;100.00;62790.56;4983904;28;20045;-74
2022/09/27 05:32:56;;;;;;;5.03;3.67;;;;;;;-145.49;100.00;62790.56;4999884;28;20054;-74
2022/09/27 05:35:46;;;;;;;5.55;3.15;;;;;;;-145.49;100.00;62790.56;4968541;28;20050;-74
2022/09/27 05:38:12;;;;;;;6.68;2.38;;;;;;;-145.49;100.00;62790.56;4990811;28;20042;-74
2022/09/27 05:40:45;;;;;;;10.27;3.33;;;;;;;-145.49;100.00;62790.56;4993593;28;20042;-74
2022/09/27 05:43:13;;;;;;;3.17;2.08;;;;;;;-145.49;100.00;62790.56;4973854;28;20485;-74
2022/09/27 05:45:39;;;;;;;4.25;3.80;;;;;;;-145.49;100.00;62790.56;5004473;28;20403;-74
2022/09/27 05:48:11;;;;;;;3.25;2.95;;;;;;;-145.49;100.00;62790.56;4984134;28;20397;-73
2022/09/27 05:50:47;;;;;;;2.63;2.33;;;;;;;-145.49;100.00;62790.56;4988722;28;20042;-73
2022/09/27 05:53:15;;;;;;;3.45;2.25;;;;;;;-145.49;100.00;62790.56;4990356;28;20030;-73
2022/09/27 05:55:45;;;;;;;2.67;1.55;;;;;;;-145.49;100.00;62790.56;5002119;28;20039;-74
2022/09/27 05:58:15;;;;;;;3.05;2.10;;;;;;;-145.49;100.00;62790.56;4988853;28;20045;-74
2022/09/27 06:00:48;;;;;;;3.05;1.77;;;;;;;-145.49;100.00;62790.56;4988072;28;20042;-74
2022/09/27 06:03:40;;;;;;;2.78;1.88;;;;;;;-145.49;100.00;62790.56;4985575;28;20397;-74
2022/09/27 06:06:37;;;;;;;5.22;2.47;;;;;;;-145.49;100.00;62790.56;4988394;28;20045;-74
2022/09/27 06:09:09;;;;;;;4.20;2.78;;;;;;;-145.49;100.00;62790.56;4993214;28;20023;-74
2022/09/27 06:11:35;;;;;;;4.22;1.88;;;;;;;-145.49;100.00;62790.56;4990310;28;20049;-74
2022/09/27 06:14:02;;;;;;;5.75;2.63;;;;;;;-145.49;100.00;62790.56;4977134;28;20049;-74
2022/09/27 06:16:36;;;;;;;2.22;1.48;;;;;;;-145.49;100.00;62790.56;4990294;28;20042;-73
2022/09/27 06:19:05;;;;;;;3.05;1.90;;;;;;;-145.49;100.00;62790.56;5001341;28;20037;-73
2022/09/27 06:21:32;;;;;;;3.42;2.22;;;;;;;-145.49;100.00;62790.56;4988208;28;20034;-74
2022/09/27 06:24:01;;;;;;;4.75;1.70;;;;;;;-145.49;100.00;62790.56;5006630;28;20038;-74
2022/09/27 06:26:33;;;;;;;2.55;2.10;;;;;;;-145.49;100.00;62790.56;4988701;28;20058;-74
2022/09/27 06:29:20;;;;;;;3.42;1.50;;;;;;;-145.49;100.00;62790.56;4997505;28;20031;-74
2022/09/27 06:31:58;;;;;;;4.35;1.98;;;;;;;-145.49;100.00;62790.56;4987364;28;20480;-74
2022/09/27 06:34:41;;;;;;;2.90;1.98;;;;;;;-145.49;100.00;62790.56;4976137;28;20043;-74
2022/09/27 06:37:07;;;;;;;2.47;2.00;;;;;;;-145.49;100.00;62790.56;4981522;28;20396;-74
2022/09/27 06:39:33;;;;;;;3.97;1.42;;;;;;;-145.49;100.00;62790.56;4967776;28;20049;-74
2022/09/27 06:42:20;;;;;;;4.53;1.60;;;;;;;-145.49;100.00;62790.56;4985866;28;20063;-75
2022/09/27 06:45:03;;;;;;;5.93;2.13;;;;;;;-145.49;100.00;62790.56;4978268;28;20053;-77
2022/09/27 06:47:53;;;;;;;2.83;1.58;;;;;;;-145.49;100.00;62790.56;4980429;28;20038;-74
2022/09/27 06:50:38;;;;;;;4.30;2.03;;;;;;;-145.49;100.00;62790.56;4984575;28;20043;-74
2022/09/27 06:53:09;;;;;;;2.45;1.48;;;;;;;-145.49;100.00;62790.56;4985988;28;20034;-74
2022/09/27 06:55:35;;;;;;;3.63;1.65;;;;;;;-145.49;100.00;62790.56;5000958;28;20045;-74
2022/09/27 07:01:09;;;;;;;3.83;1.83;;;;;;;-145.49;100.00;62790.56;4975134;28;20908;-74
2022/09/27 07:03:57;;;;;;;4.65;2.17;;;;;;;-145.49;100.00;62790.56;4985436;28;20424;-74
2022/09/27 07:06:43;;;;;;;3.67;1.63;;;;;;;-145.49;100.00;62790.56;4987727;28;20042;-74
2022/09/27 07:09:29;;;;;;;2.30;1.73;;;;;;;-145.49;100.00;62790.56;5001719;28;20396;-73
2022/09/27 07:11:57;;;;;;;6.10;2.88;;;;;;;-145.49;100.00;62790.56;4996979;28;20042;-74
2022/09/27 07:14:26;;;;;;;3.03;2.50;;;;;;;-145.49;100.00;62790.56;4981507;28;20186;-73
2022/09/27 07:16:53;;;;;;;4.28;1.65;;;;;;;-145.49;100.00;62790.56;4997883;28;20039;-74
2022/09/27 07:19:26;;;;;;;2.05;1.60;;;;;;;-145.49;100.00;62790.56;5000488;28;20042;-74
2022/09/27 07:21:52;;;;;;;2.80;1.63;;;;;;;-145.49;100.00;62790.56;4982900;28;20026;-74
2022/09/27 07:24:19;;;;;;;2.47;1.63;;;;;;;-145.49;100.00;62790.56;4988078;28;20038;-73
2022/09/27 07:26:46;;;;;;;2.38;2.17;;;;;;;-145.49;100.00;62790.56;4998058;28;20038;-74
2022/09/27 07:29:15;;;;;;;2.92;2.05;;;;;;;-145.49;100.00;62790.56;4984523;28;20045;-73
2022/09/27 07:31:41;;;;;;;2.38;1.92;;;;;;;-145.49;100.00;62790.56;4958258;28;20400;-74
2022/09/27 07:34:11;;;;;;;2.28;1.75;;;;;;;-145.49;100.00;62790.56;4984868;28;20041;-73
2022/09/27 07:36:37;;;;;;;5.00;1.77;;;;;;;-145.49;100.00;62790.56;4988999;28;20406;-74
2022/09/27 07:39:06;;;;;;;1.88;1.40;;;;;;;-145.49;100.00;62790.56;4983225;28;20046;-73
2022/09/27 07:41:35;;;;;;;1.92;1.65;;;;;;;-145.49;100.00;62790.56;4974259;28;20549;-73
2022/09/27 07:44:06;;;;;;;3.55;2.30;;;;;;;-145.49;100.00;62790.56;5003855;28;20034;-73
2022/09/27 07:46:35;;;;;;;2.70;1.67;;;;;;;-145.49;100.00;62790.56;4964604;28;20039;-73
2022/09/27 07:49:19;;;;;;;2.25;1.55;;;;;;;-145.49;100.00;62790.56;4973276;28;20034;-73
2022/09/27 07:51:57;;;;;;;2.35;1.88;;;;;;;-145.49;100.00;62790.56;4988480;28;20042;-72
2022/09/27 07:54:49;;;;;;;8.35;2.65;;;;;;;-145.49;100.00;62790.56;4989881;28;20061;-73
2022/09/27 07:57:30;;;;;;;2.00;1.23;;;;;;;-145.49;100.00;62790.56;4978689;28;20039;-74
2022/09/27 07:59:58;;;;;;;5.00;1.63;;;;;;;-145.49;100.00;62790.56;4988288;28;20037;-73
2022/09/27 08:02:24;;;;;;;2.78;1.50;;;;;;;-145.49;100.00;62790.56;5004203;28;20041;-74
2022/09/27 08:04:52;;;;;;;5.35;2.53;;;;;;;-145.49;100.00;62790.56;4999175;28;20034;-73
2022/09/27 08:07:18;;;;;;;2.10;1.38;;;;;;;-145.49;100.00;62790.56;4993584;28;20034;-73
2022/09/27 08:09:51;;;;;;;1.60;1.30;;;;;;;-145.49;100.00;62790.56;5002008;28;20065;-73
2022/09/27 08:12:21;;;;;;;2.80;1.38;;;;;;;-145.49;100.00;62790.56;4987086;28;20064;-74
2022/09/27 08:14:50;;;;;;;4.47;1.95;;;;;;;-145.49;100.00;62790.56;4971787;28;20034;-74
2022/09/27 08:17:23;;;;;;;1.92;1.25;;;;;;;-145.49;100.00;62790.56;4989386;28;20408;-74
2022/09/27 08:20:08;;;;;;;3.13;1.85;;;;;;;-145.49;100.00;62790.56;4982492;28;20034;-74
2022/09/27 08:22:53;;;;;;;2.13;1.30;;;;;;;-145.49;100.00;62790.56;4986991;28;20049;-73
2022/09/27 08:25:36;;;;;;;2.22;1.40;;;;;;;-145.49;100.00;62790.56;4999660;28;20034;-72
2022/09/27 08:28:26;;;;;;;1.48;1.15;;;;;;;-145.49;100.00;62790.56;4975143;28;20054;-73
2022/09/27 08:30:58;;;;;;;4.32;1.58;;;;;;;-145.49;100.00;62790.56;5002762;28;20644;-74
2022/09/27 08:33:32;;;;;;;1.33;1.10;;;;;;;-145.49;100.00;62790.56;4971798;28;20038;-76
2022/09/27 08:35:58;;;;;;;3.15;1.42;;;;;;;-145.49;100.00;62790.56;4998584;28;20034;-74
2022/09/27 08:38:25;;;;;;;1.45;1.02;;;;;;;-145.49;100.00;62790.56;4990058;28;20042;-74
2022/09/27 08:40:54;;;;;;;2.53;1.70;;;;;;;-145.49;100.00;62790.56;4973596;28;20042;-74
2022/09/27 08:43:42;;;;;;;2.80;1.55;;;;;;;-145.49;100.00;62790.56;5004397;28;20051;-74
2022/09/27 08:46:12;;;;;;;1.60;1.30;;;;;;;-145.49;100.00;62790.56;4975025;28;20373;-74
2022/09/27 08:48:42;;;;;;;1.63;1.52;;;;;;;-145.49;100.00;62790.56;5009113;28;20034;-74
2022/09/27 08:51:13;;;;;;;2.92;1.73;;;;;;;-145.49;100.00;62790.56;4990016;28;20254;-74
2022/09/27 08:53:56;;;;;;;2.65;1.70;;;;;;;-145.49;100.00;62790.56;4988213;28;20050;-74
2022/09/27 08:56:26;;;;;;;3.45;1.67;;;;;;;-145.49;100.00;62790.56;4989261;28;20046;-74
2022/09/27 08:59:14;;;;;;;1.60;1.48;;;;;;;-145.49;100.00;62790.56;4989965;28;20043;-74
2022/09/27 09:01:43;;;;;;;2.35;1.52;;;;;;;-145.49;100.00;62790.56;4980730;28;20046;-74
2022/09/27 09:04:21;;;;;;;2.22;1.50;;;;;;;-145.49;100.00;62790.56;4989113;28;20045;-74
2022/09/27 09:07:17;;;;;;;2.65;1.40;;;;;;;-145.49;100.00;62790.56;4999796;28;20034;-74
2022/09/27 09:10:04;;;;;;;6.28;2.03;;;;;;;-145.49;100.00;62790.56;4992615;28;20500;-74
2022/09/27 09:13:04;;;;;;;2.20;1.50;;;;;;;-145.49;100.00;62790.56;4989194;28;20062;-74
2022/09/27 09:16:09;;;;;;;3.70;1.97;;;;;;;-145.49;100.00;62790.56;4988425;28;20035;-74
2022/09/27 09:19:06;;;;;;;2.83;1.58;;;;;;;-145.49;100.00;62790.56;5010723;28;20411;-74
2022/09/27 09:22:03;;;;;;;2.17;1.40;;;;;;;-145.49;100.00;62790.56;4987651;28;20057;-74
2022/09/27 09:24:38;;;;;;;1.50;1.23;;;;;;;-145.49;100.00;62790.56;4985418;28;20042;-74
2022/09/27 09:27:23;;;;;;;3.45;2.28;;;;;;;-145.49;100.00;62790.56;4976918;28;20039;-74
2022/09/27 09:30:11;;;;;;;8.25;2.95;;;;;;;-145.49;100.00;62790.56;4990016;28;20069;-74
2022/09/27 09:33:08;;;;;;;3.92;2.22;;;;;;;-145.49;100.00;62790.56;5003630;28;20049;-74
2022/09/27 09:35:37;;;;;;;;;;;;;;;-145.49;100.00;62790.56;4990164;28;20046;-74
2022/09/27 09:38:14;;;;;;;3.60;1.95;;;;;;;-145.49;100.00;62790.56;4989918;28;19920;-75
2022/09/27 09:40:48;;;;;;;2.22;1.92;;;;;;;-145.49;100.00;62790.56;5006239;28;20393;-74
2022/09/27 09:43:15;;;;;;;1.88;1.60;;;;;;;-145.49;100.00;62790.56;4976227;28;20045;-74
2022/09/27 09:45:53;;;;;;;2.42;1.67;;;;;;;-145.49;100.00;62790.56;4980982;28;20046;-74
2022/09/27 09:49:15;;;;;;;2.13;1.40;;;;;;;-145.49;100.00;62790.56;4989753;28;20030;-74
2022/09/27 09:51:46;;;;;;;1.73;1.50;;;;;;;-145.49;100.00;62790.56;4990389;28;20062;-75
2022/09/27 09:54:37;;;;;;;2.35;1.70;;;;;;;-145.49;100.00;62790.56;4988306;28;20045;-74
2022/09/27 09:57:16;;;;;;;2.90;1.40;;;;;;;-145.49;100.00;62790.56;4979790;28;20099;-74
2022/09/27 09:59:48;;;;;;;2.03;1.63;;;;;;;-145.49;100.00;62790.56;4996971;28;20431;-74
2022/09/27 10:02:24;;;;;;;2.17;1.27;;;;;;;-145.49;100.00;62790.56;4988811;28;20057;-75
2022/09/27 10:04:51;;;;;;;4.68;2.08;;;;;;;-145.49;100.00;62790.56;4970900;28;20038;-75
2022/09/27 10:07:23;;;;;;;2.88;1.90;;;;;;;-145.49;100.00;62790.56;4986566;28;20096;-74
2022/09/27 10:09:52;;;;;;;3.22;2.38;;;;;;;-145.49;100.00;62790.56;4985191;28;20496;-74
2022/09/27 10:12:53;;;;;;;4.45;1.95;;;;;;;-145.49;100.00;62790.56;4959305;28;20412;-75
2022/09/27 10:15:30;;;;;;;4.53;1.73;;;;;;;-145.49;100.00;62790.56;4987239;28;20408;-74
2022/09/27 10:17:58;;;;;;;16.48;3.10;;;;;;;-145.49;100.00;62790.56;5002046;28;20026;-74
2022/09/27 10:20:40;;;;;;;5.30;2.50;;;;;;;-145.49;100.00;62790.56;4984271;28;20035;-74
2022/09/27 10:23:20;;;;;;;4.88;2.85;;;;;;;-145.49;100.00;62790.56;5003474;28;20038;-74
2022/09/27 10:26:10;;;;;;;5.45;3.40;;;;;;;-145.49;100.00;62790.56;4988178;28;20147;-73
2022/09/27 10:28:50;;;;;;;3.75;2.13;;;;;;;-145.49;100.00;62790.56;4991629;28;20048;-74
2022/09/27 10:31:23;;;;;;;2.47;1.95;;;;;;;-145.49;100.00;62790.56;4991897;28;20377;-74
2022/09/27 10:34:09;;;;;;;7.72;3.70;;;;;;;-145.49;100.00;62790.56;4987806;28;20034;-74
2022/09/27 10:36:45;;;;;;;4.75;2.50;;;;;;;-145.49;100.00;62790.56;4985859;28;20038;-74
2022/09/27 10:39:22;;;;;;;3.03;2.08;;;;;;;-145.49;100.00;62790.56;4989379;28;20037;-74
2022/09/27 10:41:51;;;;;;;3.83;3.00;;;;;;;-145.49;100.00;62790.56;4987589;28;20519;-74
2022/09/27 10:44:24;;;;;;;5.07;3.35;;;;;;;-145.49;100.00;62790.56;4989579;28;20045;-74
2022/09/27 10:47:06;;;;;;;4.00;3.30;;;;;;;-145.49;100.00;62790.56;4990213;28;20045;-73
2022/09/27 10:49:43;;;;;;;2.40;1.63;;;;;;;-145.49;100.00;62790.56;5000958;28;20045;-74
2022/09/27 10:52:35;;;;;;;1.63;1.50;;;;;;;-145.49;100.00;62790.56;4986095;28;20042;-75
2022/09/27 10:55:17;;;;;;;4.35;2.72;;;;;;;-145.49;100.00;62790.56;5000786;28;20061;-73
2022/09/27 10:57:48;;;;;;;2.92;1.95;;;;;;;-145.49;100.00;62790.56;4999953;28;20038;-74
2022/09/27 11:00:55;;;;;;;1.42;1.05;;;;;;;-145.49;100.00;62790.56;4983056;28;20042;-74
2022/09/27 11:03:24;;;;;;;1.58;1.45;;;;;;;-145.49;100.00;62790.56;4987443;28;20492;-74
2022/09/27 11:05:53;;;;;;;1.77;1.13;;;;;;;-145.49;100.00;62790.56;4987291;28;20042;-74
2022/09/27 11:08:31;;;;;;;1.23;1.13;;;;;;;-145.49;100.00;62790.56;4982850;28;20035;-74
2022/09/27 11:11:08;;;;;;;2.83;1.63;;;;;;;-145.49;100.00;62790.56;4998051;28;20035;-74
2022/09/27 11:13:36;;;;;;;2.60;1.20;;;;;;;-145.49;100.00;62790.56;5010141;28;20408;-74
2022/09/27 11:16:23;;;;;;;1.60;1.30;;;;;;;-145.49;100.00;62790.56;5005119;23;20045;-72
2022/09/27 11:19:08;;;;;;;1.75;1.65;;;;;;;-145.49;100.00;62790.56;5002593;28;20042;-73
2022/09/27 11:22:07;;;;;;;2.03;1.30;;;;;;;-145.49;100.00;62790.56;5009642;28;20038;-73
2022/09/27 11:25:00;;;;;;;1.10;1.00;;;;;;;-145.49;100.00;62790.56;4997691;28;20049;-72
2022/09/27 11:27:46;;;;;;;3.13;1.88;;;;;;;-145.49;100.00;62790.56;4944293;29;20047;-73
2022/09/27 11:30:15;;;;;;;1.77;1.40;;;;;;;-145.49;100.00;62790.56;4984028;28;20035;-73
2022/09/27 11:33:17;;;;;;;1.48;1.30;;;;;;;-145.49;100.00;62790.56;4976402;28;20047;-73
2022/09/27 11:35:49;;;;;;;2.33;1.23;;;;;;;-145.49;100.00;62790.56;4985969;28;20043;-73
2022/09/27 11:38:29;;;;;;;4.47;2.30;;;;;;;-145.49;100.00;62790.56;4985980;28;20039;-73
2022/09/27 11:41:04;;;;;;;6.60;3.40;;;;;;;-145.49;100.00;62790.56;4987418;28;20034;-73
2022/09/27 11:43:36;;;;;;;4.18;2.90;;;;;;;-145.49;100.00;62790.56;4966141;28;20485;-73
2022/09/27 11:46:14;;;;;;;8.82;7.22;;;;;;;-145.49;100.00;62790.56;4956566;28;20038;-74
2022/09/27 11:48:55;;;;;;;3.92;2.58;;;;;;;-145.49;100.00;62790.56;4979333;28;20061;-75
2022/09/27 11:51:31;;;;;;;2.58;1.90;;;;;;;-145.49;100.00;62790.56;4981410;28;20047;-74
2022/09/27 11:54:13;;;;;;;5.50;3.58;;;;;;;-145.49;100.00;62790.56;4986070;28;20046;-74
2022/09/27 11:56:57;;;;;;;5.97;3.13;;;;;;;-145.49;100.00;62790.56;4991318;28;20400;-73
2022/09/27 11:59:55;;;;;;;3.35;2.55;;;;;;;-145.49;100.00;62790.56;4996183;28;20045;-73
2022/09/27 12:02:42;;;;;;;4.03;3.45;;;;;;;-145.49;100.00;62790.56;4967686;28;20034;-73